Time;durP1;ratioP1;P1;durP2;ratioP2;P2;SDS_P1;SDS_P2;PMS_P1;PMS_P2;Temp;Humidity;BMP_temperature;BMP_pressure;BME280_temperature;BME280_humidity;BME280_pressure;Samples;Min_cycle;Max_cycle;Signal;HPM_P1;HPM_P2
2020/12/05 00:02:20;;;;;;;;;;;7.20;76.90;;;;;;5116450;28;20019;-77
2020/12/05 00:04:47;;;;;;;37.92;21.95;;;7.30;76.90;;;;;;5114941;28;20297;-77
2020/12/05 00:07:13;;;;;;;34.88;17.73;;;7.30;76.70;;;;;;5115908;28;20019;-77
2020/12/05 00:09:40;;;;;;;36.25;17.25;;;7.30;76.70;;;;;;5116050;28;20507;-75
2020/12/05 00:12:07;;;;;;;40.08;18.17;;;7.30;76.40;;;;;;5113878;28;20019;-76
2020/12/05 00:14:33;;;;;;;39.13;18.25;;;7.40;76.60;;;;;;5114833;28;20449;-76
2020/12/05 00:16:58;;;;;;;;;;;7.40;76.70;;;;;;5113857;28;20472;-77
2020/12/05 00:19:24;;;;;;;30.88;17.13;;;7.50;76.50;;;;;;5115394;28;19911;-76
2020/12/05 00:21:51;;;;;;;;;;;7.70;76.40;;;;;;5114419;28;20029;-78
2020/12/05 00:24:16;;;;;;;28.33;16.67;;;7.70;75.50;;;;;;5117828;28;20371;-77
2020/12/05 00:26:42;;;;;;;;;;;7.70;75.40;;;;;;5114577;28;20031;-77
2020/12/05 00:29:07;;;;;;;26.23;16.27;;;7.70;75.50;;;;;;5114292;28;19919;-74
2020/12/05 00:31:33;;;;;;;;;;;7.70;75.50;;;;;;5116839;28;20946;-78
2020/12/05 00:33:59;;;;;;;27.85;16.55;;;7.70;75.50;;;;;;5117533;28;19953;-77
2020/12/05 00:36:24;;;;;;;27.13;16.63;;;7.60;75.70;;;;;;5113256;28;20103;-76
2020/12/05 00:38:50;;;;;;;29.25;16.77;;;7.60;75.90;;;;;;5111912;28;20067;-75
2020/12/05 00:41:18;;;;;;;34.45;20.80;;;7.60;75.70;;;;;;5112377;28;20049;-75
2020/12/05 00:43:44;;;;;;;33.10;17.98;;;7.60;75.70;;;;;;5113560;28;20031;-75
2020/12/05 00:46:10;;;;;;;;;;;7.60;75.90;;;;;;5113265;28;20027;-77
2020/12/05 00:48:36;;;;;;;38.97;21.63;;;7.50;76.00;;;;;;5114588;28;19924;-76
2020/12/05 00:51:02;;;;;;;32.95;19.70;;;7.50;76.20;;;;;;5114327;28;20035;-76
2020/12/05 00:53:27;;;;;;;31.80;17.75;;;7.50;76.20;;;;;;5114146;28;20035;-76
2020/12/05 00:55:53;;;;;;;34.20;17.27;;;7.50;76.10;;;;;;5113705;28;20360;-76
2020/12/05 00:58:18;;;;;;;;;;;7.50;76.00;;;;;;5115339;28;20032;-77
2020/12/05 01:00:44;;;;;;;30.67;17.88;;;7.50;75.80;;;;;;5113701;28;19908;-76
2020/12/05 01:03:09;;;;;;;;;;;7.50;75.80;;;;;;5115393;28;20031;-77
2020/12/05 01:05:36;;;;;;;31.05;15.65;;;7.40;75.90;;;;;;5118449;28;19934;-77
2020/12/05 01:08:06;;;;;;;29.45;17.58;;;7.30;76.00;;;;;;5121666;28;20045;-78
2020/12/05 01:10:33;;;;;;;32.13;16.85;;;7.30;76.20;;;;;;5117568;28;20027;-77
2020/12/05 01:13:01;;;;;;;29.80;16.67;;;7.20;76.20;;;;;;5114368;28;20061;-76
2020/12/05 01:15:30;;;;;;;30.52;17.02;;;7.20;76.60;;;;;;5114868;28;20102;-76
2020/12/05 01:17:55;;;;;;;29.40;17.20;;;7.10;76.90;;;;;;5107063;28;20510;-76
2020/12/05 01:20:21;;;;;;;;;;;7.10;77.10;;;;;;5115483;28;20028;-76
2020/12/05 01:22:48;;;;;;;27.50;15.50;;;7.10;77.30;;;;;;5116673;28;19904;-77
2020/12/05 01:25:13;;;;;;;26.45;16.27;;;7.20;77.30;;;;;;5116979;28;20036;-77
2020/12/05 01:27:39;;;;;;;;;;;7.20;77.10;;;;;;5117155;28;20020;-78
2020/12/05 01:30:05;;;;;;;24.35;14.63;;;7.20;77.10;;;;;;5118824;28;19929;-77
2020/12/05 01:32:30;;;;;;;;;;;7.20;76.70;;;;;;5120633;28;20407;-77
2020/12/05 01:34:56;;;;;;;38.42;17.40;;;7.20;76.60;;;;;;5123746;28;19904;-77
2020/12/05 01:37:21;;;;;;;;;;;7.10;76.60;;;;;;5121988;28;20027;-77
2020/12/05 01:39:47;;;;;;;25.85;15.63;;;7.10;76.80;;;;;;5122104;28;19904;-79
2020/12/05 01:42:13;;;;;;;24.95;15.65;;;7.00;77.20;;;;;;5120828;28;20030;-77
2020/12/05 01:44:38;;;;;;;;;;;7.00;77.20;;;;;;5116857;28;20032;-77
2020/12/05 01:47:04;;;;;;;24.27;14.38;;;7.00;77.20;;;;;;5113365;28;19912;-77
2020/12/05 01:49:31;;;;;;;26.85;15.80;;;6.90;77.20;;;;;;5113947;28;20035;-76
2020/12/05 01:51:59;;;;;;;28.13;15.68;;;6.90;77.20;;;;;;5113450;28;20028;-77
2020/12/05 01:54:25;;;;;;;28.88;14.95;;;6.90;77.40;;;;;;5112450;28;20032;-77
2020/12/05 01:56:58;;;;;;;;;;;7.00;77.40;;;;;;5117794;28;20034;-76
2020/12/05 01:59:24;;;;;;;29.33;15.63;;;7.10;77.00;;;;;;5115887;28;19933;-77
2020/12/05 02:01:51;;;;;;;;;;;7.00;76.80;;;;;;5117203;28;20023;-77
2020/12/05 02:04:17;;;;;;;25.13;14.82;;;7.10;76.90;;;;;;5117735;28;20669;-77
2020/12/05 02:06:46;;;;;;;;;;;7.10;77.00;;;;;;5117248;28;20035;-77
2020/12/05 02:09:18;;;;;;;25.17;15.15;;;7.10;76.70;;;;;;5117624;28;19916;-78
2020/12/05 02:11:52;;;;;;;26.85;15.32;;;7.10;76.90;;;;;;5121634;28;20103;-78
2020/12/05 02:14:20;;;;;;;26.30;16.33;;;7.10;76.50;;;;;;5120563;28;20028;-77
2020/12/05 02:16:47;;;;;;;25.23;16.52;;;7.10;76.40;;;;;;5119342;28;20030;-78
2020/12/05 02:19:18;;;;;;;31.55;16.92;;;7.10;76.50;;;;;;5121712;28;20024;-79
2020/12/05 02:21:47;;;;;;;25.08;15.55;;;7.00;77.40;;;;;;5121478;28;20039;-78
2020/12/05 02:24:14;;;;;;;25.70;14.88;;;7.00;76.80;;;;;;5117822;28;20053;-77
2020/12/05 02:26:42;;;;;;;24.52;15.95;;;7.00;76.60;;;;;;5116052;28;20030;-76
2020/12/05 02:29:09;;;;;;;31.05;16.88;;;7.00;76.50;;;;;;5114312;28;20134;-76
2020/12/05 02:31:36;;;;;;;24.23;15.80;;;7.00;76.50;;;;;;5116038;28;20019;-77
2020/12/05 02:34:03;;;;;;;28.20;17.10;;;7.00;76.60;;;;;;5115232;28;20051;-77
2020/12/05 02:36:35;;;;;;;27.08;16.02;;;7.00;76.60;;;;;;5115899;28;20098;-75
2020/12/05 02:39:08;;;;;;;29.17;17.25;;;7.00;76.60;;;;;;5116876;28;20396;-76
2020/12/05 02:41:40;;;;;;;31.20;15.82;;;7.10;76.60;;;;;;5115167;28;20024;-77
2020/12/05 02:44:07;;;;;;;26.83;15.65;;;7.10;76.70;;;;;;5117403;28;20031;-78
2020/12/05 02:46:33;;;;;;;28.20;15.82;;;7.10;76.70;;;;;;5120216;28;20039;-77
2020/12/05 02:49:00;;;;;;;26.48;15.40;;;7.00;77.00;;;;;;5115980;28;20047;-77
2020/12/05 02:51:25;;;;;;;29.73;17.27;;;7.10;77.40;;;;;;5116965;28;20077;-77
2020/12/05 02:53:51;;;;;;;;;;;7.10;77.50;;;;;;5116394;28;20032;-77
2020/12/05 02:56:17;;;;;;;27.40;15.27;;;7.10;77.40;;;;;;5117801;28;19904;-77
2020/12/05 02:58:45;;;;;;;28.08;15.63;;;7.10;77.30;;;;;;5117152;28;20020;-77
2020/12/05 03:01:10;;;;;;;30.40;17.05;;;7.20;77.20;;;;;;5115979;28;20476;-78
2020/12/05 03:03:36;;;;;;;;;;;7.20;76.90;;;;;;5116890;28;20076;-77
2020/12/05 03:06:01;;;;;;;30.67;15.98;;;7.20;76.80;;;;;;5116672;28;19904;-77
2020/12/05 03:08:27;;;;;;;26.00;14.23;;;7.20;76.80;;;;;;5116969;28;20055;-76
2020/12/05 03:10:53;;;;;;;;;;;7.20;76.80;;;;;;5115304;28;20472;-77
2020/12/05 03:13:18;;;;;;;24.33;14.88;;;7.20;76.70;;;;;;5115519;28;19952;-76
2020/12/05 03:15:44;;;;;;;;;;;7.30;76.50;;;;;;5115667;28;20027;-77
2020/12/05 03:18:09;;;;;;;25.48;13.30;;;7.30;76.40;;;;;;5116635;28;19909;-77
2020/12/05 03:20:35;;;;;;;;;;;7.20;76.40;;;;;;5116034;28;20042;-77
2020/12/05 03:23:00;;;;;;;26.75;14.82;;;7.20;76.30;;;;;;5116157;28;19903;-75
2020/12/05 03:25:26;;;;;;;;;;;7.20;76.40;;;;;;5115695;28;20024;-77
2020/12/05 03:27:52;;;;;;;20.65;13.48;;;7.20;76.30;;;;;;5116109;28;19982;-77
2020/12/05 03:30:17;;;;;;;24.58;13.88;;;7.30;76.20;;;;;;5114898;28;20032;-77
2020/12/05 03:32:43;;;;;;;;;;;7.20;76.00;;;;;;5117566;28;20073;-76
2020/12/05 03:35:09;;;;;;;21.67;13.48;;;7.20;76.10;;;;;;5115125;28;19908;-77
2020/12/05 03:37:36;;;;;;;;;;;7.20;76.00;;;;;;5115482;28;20031;-77
2020/12/05 03:40:03;;;;;;;19.48;11.95;;;7.30;75.90;;;;;;5116090;28;19903;-77
2020/12/05 03:42:29;;;;;;;19.70;12.80;;;7.30;75.70;;;;;;5116745;28;20391;-77
2020/12/05 03:44:55;;;;;;;;;;;7.30;75.60;;;;;;5116229;28;20027;-76
2020/12/05 03:47:21;;;;;;;24.63;13.25;;;7.30;75.50;;;;;;5115110;28;19914;-76
2020/12/05 03:49:46;;;;;;;;;;;7.30;75.40;;;;;;5117104;28;20032;-75
2020/12/05 03:52:12;;;;;;;21.45;12.77;;;7.40;75.40;;;;;;5113073;28;19908;-75
2020/12/05 03:54:37;;;;;;;;;;;7.40;75.70;;;;;;5114823;28;20043;-76
2020/12/05 03:57:03;;;;;;;23.15;13.38;;;7.40;75.70;;;;;;5114088;28;19953;-76
2020/12/05 03:59:29;;;;;;;24.52;12.95;;;7.50;75.60;;;;;;5114873;28;20027;-77
2020/12/05 04:01:54;;;;;;;;;;;7.50;75.50;;;;;;5114699;28;20039;-75
2020/12/05 04:04:20;;;;;;;20.73;12.85;;;7.50;75.40;;;;;;5116288;28;20424;-77
2020/12/05 04:06:46;;;;;;;;;;;7.60;75.40;;;;;;5117235;28;20030;-77
2020/12/05 04:09:11;;;;;;;20.60;12.35;;;7.60;75.30;;;;;;5118037;28;19918;-77
2020/12/05 04:11:38;;;;;;;;;;;7.60;75.40;;;;;;5116740;28;20023;-76
2020/12/05 04:14:08;;;;;;;19.92;11.82;;;7.60;75.30;;;;;;5114358;28;19911;-77
2020/12/05 04:16:34;;;;;;;22.20;12.77;;;7.60;75.30;;;;;;5114459;28;20078;-77
2020/12/05 04:19:00;;;;;;;23.35;13.48;;;7.50;75.50;;;;;;5115683;28;20019;-76
2020/12/05 04:21:26;;;;;;;;;;;7.50;75.70;;;;;;5115312;28;20410;-76
2020/12/05 04:23:53;;;;;;;23.23;13.05;;;7.50;75.90;;;;;;5116042;28;19908;-76
2020/12/05 04:26:19;;;;;;;21.45;13.18;;;7.50;76.20;;;;;;5117909;28;20395;-77
2020/12/05 04:28:45;;;;;;;23.05;13.10;;;7.60;75.90;;;;;;5114133;28;20043;-77
2020/12/05 04:31:10;;;;;;;;;;;7.60;76.60;;;;;;5119467;28;20027;-77
2020/12/05 04:33:36;;;;;;;22.67;12.05;;;7.70;76.00;;;;;;5119016;28;19907;-77
2020/12/05 04:36:02;;;;;;;;;;;7.70;75.80;;;;;;5111810;28;20118;-77
2020/12/05 04:38:27;;;;;;;24.05;13.07;;;7.60;75.80;;;;;;5112656;28;19965;-76
2020/12/05 04:40:56;;;;;;;;;;;7.70;76.10;;;;;;5111635;28;20047;-77
2020/12/05 04:43:22;;;;;;;20.50;12.68;;;7.70;75.90;;;;;;5113115;28;19904;-76
2020/12/05 04:45:48;;;;;;;;;;;7.70;75.70;;;;;;5111638;28;20028;-76
2020/12/05 04:48:15;;;;;;;20.80;12.48;;;7.70;75.80;;;;;;5110730;28;19919;-76
2020/12/05 04:50:44;;;;;;;22.60;12.60;;;7.70;75.70;;;;;;5112524;28;20019;-76
2020/12/05 04:53:16;;;;;;;20.95;12.18;;;7.60;76.00;;;;;;5112695;28;20027;-76
2020/12/05 04:55:43;;;;;;;20.67;12.63;;;7.70;76.20;;;;;;5111170;28;20110;-76
2020/12/05 04:58:38;;;;;;;22.35;13.63;;;7.70;76.00;;;;;;5110831;28;20082;-76
2020/12/05 05:01:04;;;;;;;25.33;13.63;;;7.60;76.30;;;;;;5112499;28;20040;-76
2020/12/05 05:03:30;;;;;;;19.35;13.10;;;7.60;76.30;;;;;;5112189;28;20085;-77
2020/12/05 05:05:56;;;;;;;;;;;7.60;77.10;;;;;;5124276;28;20032;-78
2020/12/05 05:08:26;;;;;;;25.60;13.82;;;7.60;76.80;;;;;;5128199;28;19916;-78
2020/12/05 05:11:09;;;;;;;23.98;15.27;;;7.60;76.60;;;;;;5114392;28;20023;-77
2020/12/05 05:13:55;;;;;;;19.65;12.20;;;7.60;76.50;;;;;;5113411;28;20034;-76
2020/12/05 05:16:23;;;;;;;20.73;13.23;;;7.60;77.60;;;;;;5111740;28;20034;-77
2020/12/05 05:18:49;;;;;;;20.70;13.32;;;7.70;78.30;;;;;;5113107;28;20030;-76
2020/12/05 05:21:34;;;;;;;;;;;7.70;77.80;;;;;;5112769;28;20031;-76
2020/12/05 05:24:09;;;;;;;19.88;13.60;;;7.70;77.20;;;;;;5114369;28;20431;-77
2020/12/05 05:26:34;;;;;;;24.35;16.48;;;7.70;77.00;;;;;;5113852;28;20035;-76
2020/12/05 05:29:00;;;;;;;;;;;7.70;77.00;;;;;;5113829;28;20040;-79
2020/12/05 05:31:43;;;;;;;24.10;13.57;;;7.70;77.70;;;;;;5118636;28;19904;-77
2020/12/05 05:34:17;;;;;;;25.33;15.38;;;7.60;77.90;;;;;;5119026;28;20065;-76
2020/12/05 05:36:43;;;;;;;27.70;14.75;;;7.60;78.20;;;;;;5116003;28;20077;-76
2020/12/05 05:39:11;;;;;;;;;;;7.60;78.40;;;;;;5117663;28;20027;-77
2020/12/05 05:41:39;;;;;;;22.73;13.82;;;7.70;79.60;;;;;;5122454;28;19953;-78
2020/12/05 05:44:06;;;;;;;20.10;13.57;;;7.70;79.10;;;;;;5124452;28;20038;-78
2020/12/05 05:46:34;;;;;;;21.52;13.20;;;7.80;78.50;;;;;;5122288;28;20031;-76
2020/12/05 05:49:02;;;;;;;20.00;12.65;;;7.80;77.90;;;;;;5116069;28;20073;-77
2020/12/05 05:51:37;;;;;;;17.13;11.52;;;7.80;78.00;;;;;;5117837;28;20034;-76
2020/12/05 05:54:14;;;;;;;35.92;13.32;;;7.80;78.10;;;;;;5117714;28;20048;-77
2020/12/05 05:56:59;;;;;;;18.77;12.20;;;7.80;78.50;;;;;;5130751;28;20088;-78
2020/12/05 05:59:36;;;;;;;20.35;13.65;;;7.70;78.80;;;;;;5135050;28;20016;-78
2020/12/05 06:02:07;;;;;;;18.95;13.43;;;7.80;79.40;;;;;;5117804;27;20072;-77
2020/12/05 06:04:41;;;;;;;22.75;14.05;;;7.80;79.40;;;;;;5117352;28;20028;-76
2020/12/05 06:07:18;;;;;;;23.30;14.38;;;7.90;79.50;;;;;;5115510;28;20106;-77
2020/12/05 06:09:48;;;;;;;23.95;14.25;;;7.90;78.70;;;;;;5113223;28;20049;-76
2020/12/05 06:12:22;;;;;;;34.22;20.20;;;7.90;78.30;;;;;;5115929;28;20069;-77
2020/12/05 06:14:49;;;;;;;51.45;27.20;;;7.90;78.50;;;;;;5109935;28;20077;-77
2020/12/05 06:17:20;;;;;;;56.13;30.60;;;7.90;78.00;;;;;;5115841;28;20219;-77
2020/12/05 06:19:48;;;;;;;30.65;18.00;;;7.90;78.10;;;;;;5118832;28;20280;-78
2020/12/05 06:22:35;;;;;;;58.75;34.88;;;7.90;79.00;;;;;;5119440;28;20114;-77
2020/12/05 06:25:14;;;;;;;41.38;26.83;;;8.00;78.30;;;;;;5117872;28;20064;-77
2020/12/05 06:28:03;;;;;;;28.70;18.13;;;8.00;78.80;;;;;;5117594;28;20020;-77
2020/12/05 06:30:29;;;;;;;23.00;14.88;;;8.00;78.50;;;;;;5118609;28;20028;-77
2020/12/05 06:32:55;;;;;;;;;;;8.00;78.50;;;;;;5118361;28;20541;-77
2020/12/05 06:35:24;;;;;;;24.80;15.07;;;8.00;78.60;;;;;;5117342;28;19910;-78
2020/12/05 06:37:55;;;;;;;22.08;13.50;;;8.10;78.60;;;;;;5117472;28;20042;-77
2020/12/05 06:40:24;;;;;;;23.63;13.38;;;8.10;78.80;;;;;;5121302;28;20035;-76
2020/12/05 06:42:52;;;;;;;22.13;14.07;;;8.10;78.80;;;;;;5114758;28;20019;-76
2020/12/05 06:45:27;;;;;;;25.35;17.10;;;8.30;79.20;;;;;;5117189;28;20117;-76
2020/12/05 06:48:16;;;;;;;28.88;18.17;;;8.30;78.60;;;;;;5114917;28;20044;-77
2020/12/05 06:50:43;;;;;;;20.38;14.20;;;8.40;78.30;;;;;;5112452;28;20043;-76
2020/12/05 06:53:20;;;;;;;23.38;14.85;;;8.40;78.30;;;;;;5115994;28;20039;-76
2020/12/05 06:55:51;;;;;;;24.38;13.38;;;8.50;77.30;;;;;;5114406;28;20020;-76
2020/12/05 06:58:31;;;;;;;23.65;13.45;;;8.50;76.40;;;;;;5115626;28;20027;-76
2020/12/05 07:00:58;;;;;;;21.45;15.70;;;8.50;76.10;;;;;;5116418;28;20032;-76
2020/12/05 07:03:29;;;;;;;19.63;14.05;;;8.50;75.70;;;;;;5118475;28;20087;-76
2020/12/05 07:05:56;;;;;;;22.88;13.38;;;8.60;75.80;;;;;;5118715;28;20031;-76
2020/12/05 07:08:33;;;;;;;44.22;24.58;;;8.70;75.70;;;;;;5120369;28;20499;-78
2020/12/05 07:11:04;;;;;;;54.55;30.05;;;8.80;75.30;;;;;;5121428;28;20043;-77
2020/12/05 07:13:49;;;;;;;30.15;20.08;;;8.90;74.70;;;;;;5122258;28;20049;-78
2020/12/05 07:16:23;;;;;;;21.90;13.90;;;9.00;74.70;;;;;;5116393;28;20023;-77
2020/12/05 07:18:54;;;;;;;75.43;41.40;;;9.20;73.40;;;;;;5123023;28;20024;-78
2020/12/05 07:21:21;;;;;;;38.10;21.88;;;9.40;72.80;;;;;;5119579;28;20115;-77
2020/12/05 07:23:48;;;;;;;44.45;25.95;;;9.50;72.30;;;;;;5113737;28;20396;-78
2020/12/05 07:26:14;;;;;;;20.58;13.18;;;9.60;72.50;;;;;;5113812;28;20112;-77
2020/12/05 07:28:52;;;;;;;24.52;13.48;;;9.70;71.80;;;;;;5112738;28;20054;-78
2020/12/05 07:31:18;;;;;;;73.65;44.03;;;9.70;71.20;;;;;;5112530;28;20024;-76
2020/12/05 07:33:44;;;;;;;28.20;16.75;;;9.70;71.80;;;;;;5113827;28;20097;-77
2020/12/05 07:36:11;;;;;;;21.95;14.27;;;9.70;71.60;;;;;;5112595;28;20110;-77
2020/12/05 07:38:40;;;;;;;19.63;13.40;;;9.70;70.90;;;;;;5112273;28;20023;-77
2020/12/05 07:41:17;;;;;;;48.63;28.88;;;9.70;71.00;;;;;;5113024;28;20053;-77
2020/12/05 07:43:43;;;;;;;46.65;27.67;;;9.60;71.70;;;;;;5113821;28;20054;-77
2020/12/05 07:46:10;;;;;;;32.25;20.70;;;9.60;72.50;;;;;;5107192;28;20096;-79
2020/12/05 07:48:37;;;;;;;23.45;12.98;;;9.60;71.90;;;;;;5093499;28;20747;-77
2020/12/05 07:51:10;;;;;;;33.70;20.90;;;9.70;71.10;;;;;;5096339;28;20412;-78
2020/12/05 07:53:36;;;;;;;37.08;22.38;;;9.90;71.00;;;;;;5097542;28;20042;-78
2020/12/05 07:56:15;;;;;;;;;;;10.20;70.30;;;;;;5097589;28;20028;-76
2020/12/05 07:58:47;;;;;;;29.25;20.20;;;10.50;69.00;;;;;;5095257;28;20253;-77
2020/12/05 08:01:23;;;;;;;29.02;16.98;;;10.60;68.00;;;;;;5095341;28;20123;-77
2020/12/05 08:04:10;;;;;;;19.58;12.73;;;10.70;67.80;;;;;;5096453;28;20042;-78
2020/12/05 08:07:04;;;;;;;21.73;14.95;;;11.00;67.20;;;;;;5096791;28;20028;-78
2020/12/05 08:09:33;;;;;;;20.02;13.43;;;11.20;66.20;;;;;;5095763;28;20028;-77
2020/12/05 08:12:01;;;;;;;18.63;12.45;;;11.40;65.80;;;;;;5096696;28;20028;-79
2020/12/05 08:14:31;;;;;;;20.70;15.25;;;11.50;65.10;;;;;;5103406;28;20035;-77
2020/12/05 08:17:01;;;;;;;24.13;17.60;;;11.50;64.60;;;;;;5115930;28;20024;-77
2020/12/05 08:19:27;;;;;;;31.20;23.92;;;11.40;64.70;;;;;;5113856;28;20031;-77
2020/12/05 08:21:52;;;;;;;;;;;11.50;65.20;;;;;;5113187;28;20043;-76
2020/12/05 08:24:18;;;;;;;24.15;16.08;;;11.70;64.40;;;;;;5113146;28;19965;-76
2020/12/05 08:26:47;;;;;;;;;;;11.80;64.00;;;;;;5112929;28;20638;-77
2020/12/05 08:29:13;;;;;;;17.75;12.98;;;12.00;62.90;;;;;;5116982;28;19947;-78
2020/12/05 08:31:41;;;;;;;;;;;12.20;62.70;;;;;;5122377;28;20039;-79
2020/12/05 08:34:07;;;;;;;16.67;12.20;;;12.30;61.90;;;;;;5127441;28;19907;-79
2020/12/05 08:36:42;;;;;;;23.00;14.10;;;12.50;61.40;;;;;;5125367;28;20050;-78
2020/12/05 08:39:10;;;;;;;27.17;15.27;;;12.80;60.50;;;;;;5118136;28;20423;-77
2020/12/05 08:41:41;;;;;;;17.52;12.45;;;13.00;59.60;;;;;;5116865;28;20061;-77
2020/12/05 08:44:16;;;;;;;15.80;10.40;;;13.10;59.50;;;;;;5116546;28;20020;-79
2020/12/05 08:46:42;;;;;;;20.33;13.57;;;13.10;59.10;;;;;;5120327;28;20058;-78
2020/12/05 08:49:18;;;;;;;16.13;10.95;;;13.10;59.20;;;;;;5113282;28;20067;-77
2020/12/05 08:51:48;;;;;;;;;;;13.10;58.80;;;;;;5114289;28;20052;-79
2020/12/05 08:54:15;;;;;;;30.10;14.93;;;13.10;59.20;;;;;;5115247;28;20283;-78
2020/12/05 08:56:42;;;;;;;17.88;12.98;;;13.00;59.30;;;;;;5113133;28;20027;-77
2020/12/05 08:59:08;;;;;;;20.55;13.40;;;13.10;59.20;;;;;;5112574;28;20065;-78
2020/12/05 09:01:41;;;;;;;17.75;12.35;;;13.20;59.00;;;;;;5113724;28;20011;-79
2020/12/05 09:04:11;;;;;;;14.50;10.82;;;13.30;58.50;;;;;;5117592;28;20072;-79
2020/12/05 09:06:38;;;;;;;15.90;10.93;;;13.30;58.30;;;;;;5118755;28;20023;-76
2020/12/05 09:09:03;;;;;;;12.77;9.35;;;13.30;58.10;;;;;;5116603;28;20035;-78
2020/12/05 09:11:29;;;;;;;12.35;8.57;;;13.20;58.50;;;;;;5119449;28;20085;-78
2020/12/05 09:13:55;;;;;;;18.63;10.90;;;13.20;58.70;;;;;;5123282;28;20031;-78
2020/12/05 09:16:31;;;;;;;;;;;13.10;59.00;;;;;;5124333;28;20414;-78
2020/12/05 09:18:56;;;;;;;21.10;14.45;;;12.80;59.80;;;;;;5131656;27;19922;-79
2020/12/05 09:21:22;;;;;;;;;;;12.50;60.80;;;;;;5119849;28;20020;-77
2020/12/05 09:24:05;;;;;;;22.15;14.18;;;12.40;61.50;;;;;;5121992;28;19968;-78
2020/12/05 09:26:34;;;;;;;27.45;15.63;;;12.30;62.40;;;;;;5117636;28;20031;-76
2020/12/05 09:29:00;;;;;;;22.80;14.85;;;12.00;62.70;;;;;;5117232;28;20035;-78
2020/12/05 09:31:26;;;;;;;17.58;11.85;;;11.90;63.50;;;;;;5121431;28;20027;-77
2020/12/05 09:33:52;;;;;;;;;;;11.60;64.60;;;;;;5121009;28;20027;-76
2020/12/05 09:36:17;;;;;;;15.50;10.80;;;11.50;65.40;;;;;;5126525;28;19912;-78
2020/12/05 09:38:43;;;;;;;;;;;11.50;65.70;;;;;;5129472;28;20041;-79
2020/12/05 09:41:08;;;;;;;20.65;11.02;;;11.40;66.20;;;;;;5126157;28;19929;-79
2020/12/05 09:43:34;;;;;;;;;;;11.40;66.70;;;;;;5122686;28;20143;-78
2020/12/05 09:46:00;;;;;;;16.05;10.18;;;11.40;66.40;;;;;;5121133;28;19940;-79
2020/12/05 09:48:25;;;;;;;;;;;11.30;66.70;;;;;;5124807;28;20547;-79
2020/12/05 09:50:51;;;;;;;14.43;9.30;;;11.20;67.10;;;;;;5124107;28;19910;-78
2020/12/05 09:53:16;;;;;;;;;;;11.10;67.70;;;;;;5122208;28;20027;-77
2020/12/05 09:55:42;;;;;;;16.55;11.25;;;11.10;68.20;;;;;;5120076;28;19916;-77
2020/12/05 09:58:07;;;;;;;;;;;11.20;67.90;;;;;;5119487;28;20084;-77
2020/12/05 10:00:33;;;;;;;20.88;13.05;;;11.20;67.30;;;;;;5118847;28;19937;-77
2020/12/05 10:02:59;;;;;;;;;;;11.20;68.00;;;;;;5121899;28;20487;-76
2020/12/05 10:05:25;;;;;;;16.48;10.48;;;11.20;67.70;;;;;;5119370;28;19911;-78
2020/12/05 10:07:50;;;;;;;;;;;11.20;68.30;;;;;;5122839;28;20032;-78
2020/12/05 10:10:16;;;;;;;16.45;11.32;;;11.20;68.20;;;;;;5127277;28;19975;-76
2020/12/05 10:12:45;;;;;;;;;;;11.20;68.20;;;;;;5123224;28;20032;-77
2020/12/05 10:15:15;;;;;;;40.65;22.75;;;11.20;68.00;;;;;;5128444;28;19904;-79
2020/12/05 10:17:42;;;;;;;25.70;16.10;;;11.20;68.20;;;;;;5130972;28;20027;-78
2020/12/05 10:20:08;;;;;;;17.73;11.45;;;11.20;68.10;;;;;;5119372;28;20028;-77
2020/12/05 10:22:34;;;;;;;20.50;11.88;;;11.20;68.00;;;;;;5114727;28;20083;-77
2020/12/05 10:25:00;;;;;;;;;;;11.30;67.90;;;;;;5117148;28;20137;-76
2020/12/05 10:27:26;;;;;;;26.75;13.60;;;11.20;67.90;;;;;;5113391;28;19904;-78
2020/12/05 10:29:52;;;;;;;;;;;11.10;68.60;;;;;;5116105;28;20040;-77
2020/12/05 10:32:18;;;;;;;18.50;11.57;;;11.20;68.40;;;;;;5115839;28;19914;-77
2020/12/05 10:34:44;;;;;;;22.17;13.77;;;11.20;68.70;;;;;;5114591;28;20043;-76
2020/12/05 10:37:09;;;;;;;;;;;11.20;68.80;;;;;;5114741;28;20427;-78
2020/12/05 10:39:35;;;;;;;20.77;12.93;;;11.10;68.90;;;;;;5115465;28;19964;-78
2020/12/05 10:42:00;;;;;;;;;;;11.10;69.10;;;;;;5116561;28;20024;-77
2020/12/05 10:44:26;;;;;;;22.80;13.63;;;11.10;69.20;;;;;;5115838;28;20062;-78
2020/12/05 10:46:52;;;;;;;;;;;11.10;69.10;;;;;;5113521;28;20020;-76
2020/12/05 10:49:19;;;;;;;26.27;16.33;;;11.10;69.30;;;;;;5115959;28;19963;-76
2020/12/05 10:51:46;;;;;;;27.92;15.52;;;11.00;69.50;;;;;;5114932;28;20015;-78
2020/12/05 10:54:11;;;;;;;24.52;11.40;;;11.10;69.80;;;;;;5115359;28;20031;-77
2020/12/05 10:56:38;;;;;;;;;;;11.10;69.80;;;;;;5115010;28;20024;-77
2020/12/05 10:59:03;;;;;;;17.98;11.45;;;11.10;69.60;;;;;;5115319;28;19904;-78
2020/12/05 11:01:29;;;;;;;;;;;11.10;69.60;;;;;;5116075;28;20099;-78
2020/12/05 11:03:55;;;;;;;21.27;12.40;;;11.10;69.90;;;;;;5119405;28;19908;-78
2020/12/05 11:06:24;;;;;;;;;;;11.10;69.90;;;;;;5122283;28;20108;-78
2020/12/05 11:08:50;;;;;;;22.48;12.43;;;11.20;69.60;;;;;;5123001;28;19915;-78
2020/12/05 11:11:17;;;;;;;21.98;14.23;;;11.20;69.60;;;;;;5123826;28;20047;-78
2020/12/05 11:13:43;;;;;;;23.23;14.75;;;11.30;69.30;;;;;;5124178;28;20027;-79
2020/12/05 11:16:09;;;;;;;;;;;11.30;69.70;;;;;;5121110;28;20023;-78
2020/12/05 11:18:34;;;;;;;49.70;30.77;;;11.20;69.60;;;;;;5116267;28;20622;-76
2020/12/05 11:21:00;;;;;;;;;;;11.30;70.00;;;;;;5116716;28;20116;-78
2020/12/05 11:23:26;;;;;;;65.70;41.17;;;11.30;69.50;;;;;;5115796;28;19969;-78
2020/12/05 11:25:51;;;;;;;;;;;11.20;69.90;;;;;;5120943;28;20038;-78
2020/12/05 11:28:17;;;;;;;27.52;16.08;;;11.20;69.90;;;;;;5123388;28;19961;-79
2020/12/05 11:30:43;;;;;;;;;;;11.20;70.10;;;;;;5115757;28;20072;-77
2020/12/05 11:33:08;;;;;;;22.52;14.00;;;11.20;70.00;;;;;;5117487;28;20002;-78
2020/12/05 11:35:35;;;;;;;;;;;11.20;70.20;;;;;;5116219;28;20028;-77
2020/12/05 11:38:00;;;;;;;35.35;20.20;;;11.20;70.20;;;;;;5117054;28;19911;-80
2020/12/05 11:40:26;;;;;;;;;;;11.10;70.30;;;;;;5123903;28;20080;-77
2020/12/05 11:42:51;;;;;;;19.70;12.85;;;11.20;70.50;;;;;;5118320;28;19904;-77
2020/12/05 11:45:17;;;;;;;;;;;11.20;70.50;;;;;;5119432;28;20486;-77
2020/12/05 11:47:43;;;;;;;33.03;19.33;;;11.30;70.50;;;;;;5117445;28;19922;-77
2020/12/05 11:50:09;;;;;;;;;;;11.30;70.30;;;;;;5117132;28;20028;-77
2020/12/05 11:52:34;;;;;;;23.67;15.55;;;11.40;69.90;;;;;;5118174;28;19912;-77
2020/12/05 11:55:00;;;;;;;;;;;11.40;70.10;;;;;;5115794;28;20513;-77
2020/12/05 11:57:25;;;;;;;22.13;13.45;;;11.40;70.40;;;;;;5111348;28;20303;-77
2020/12/05 11:59:51;;;;;;;;;;;11.40;70.30;;;;;;5111889;28;20491;-76
2020/12/05 12:02:17;;;;;;;20.45;11.88;;;11.40;70.30;;;;;;5114684;28;20391;-79
2020/12/05 12:04:42;;;;;;;;;;;11.40;70.40;;;;;;5104428;28;20032;-77
2020/12/05 12:07:08;;;;;;;19.17;11.98;;;11.40;70.70;;;;;;5077034;28;19908;-78
2020/12/05 12:09:34;;;;;;;;;;;11.50;70.60;;;;;;5094912;28;20036;-78
2020/12/05 12:12:00;;;;;;;21.98;13.55;;;11.40;70.40;;;;;;5092487;28;19904;-78
2020/12/05 12:14:27;;;;;;;21.58;13.52;;;11.50;70.50;;;;;;5096491;28;20028;-78
2020/12/05 12:16:53;;;;;;;34.40;18.75;;;11.50;70.60;;;;;;5105501;28;20023;-78
2020/12/05 12:19:19;;;;;;;25.73;15.35;;;11.50;70.60;;;;;;5115139;28;20174;-77
2020/12/05 12:21:44;;;;;;;;;;;11.50;70.50;;;;;;5114582;28;20047;-78
2020/12/05 12:24:10;;;;;;;22.52;14.45;;;11.50;70.50;;;;;;5114293;28;19908;-78
2020/12/05 12:26:36;;;;;;;;;;;11.50;70.60;;;;;;5116190;28;20393;-78
2020/12/05 12:29:02;;;;;;;20.10;11.93;;;11.50;70.80;;;;;;5115988;28;19915;-78
2020/12/05 12:31:28;;;;;;;23.27;14.05;;;11.50;70.80;;;;;;5115298;28;20356;-77
2020/12/05 12:33:53;;;;;;;;;;;11.60;70.90;;;;;;5116445;28;20101;-77
2020/12/05 12:36:20;;;;;;;28.02;17.65;;;11.60;70.80;;;;;;5114784;28;19908;-78
2020/12/05 12:38:47;;;;;;;20.25;12.82;;;11.60;70.90;;;;;;5115645;28;20019;-78
2020/12/05 12:41:14;;;;;;;21.83;12.63;;;11.50;70.90;;;;;;5114584;28;20023;-77
2020/12/05 12:43:40;;;;;;;21.08;13.48;;;11.50;70.90;;;;;;5115053;28;20182;-78
2020/12/05 12:46:05;;;;;;;;;;;11.50;71.10;;;;;;5114670;28;20028;-78
2020/12/05 12:50:58;;;;;;;96.35;52.65;;;11.50;71.20;;;;;;5120097;28;20059;-78
2020/12/05 12:53:23;;;;;;;;;;;11.50;71.50;;;;;;5119929;28;20034;-79
2020/12/05 12:55:50;;;;;;;31.17;18.17;;;11.50;71.50;;;;;;5120681;28;19907;-78
2020/12/05 12:58:26;;;;;;;118.10;60.05;;;11.50;71.70;;;;;;5122819;28;20035;-80
2020/12/05 13:00:52;;;;;;;;;;;11.60;71.90;;;;;;5125312;28;20024;-78
2020/12/05 13:03:18;;;;;;;62.55;34.35;;;11.60;71.90;;;;;;5114840;28;19904;-78
2020/12/05 13:05:44;;;;;;;;;;;11.60;71.80;;;;;;5122452;28;20084;-78
2020/12/05 13:08:11;;;;;;;65.43;37.35;;;11.60;71.90;;;;;;5121909;28;19908;-78